25.02.2017Höhe
ü. NN
ZeitTemperatur (°C)Nieder-
schlag
Luft-
feuchte
Luft-
druck
Wind
StationaktuellMinimumMaximumaktuellMaximum
Allmendingen541 m05:35-4,9-4,9 (05:35)-1,9 (14:45)0,0 l/m²89%1022,80,0 km/h (0 Bft) O-NO35,4 km/h (5 Bft) W-NW (06:10)
Altshausen574 m05:36-2,7-2,7 (05:25)0,2 (01:56)0,0 l/m²93%1021,73,2 km/h (1 Bft) N-NW4,8 km/h (1 Bft) N-NW (00:02)
Amstetten-Reutti663 m05:35-2,9-2,9 (05:35)-1,0 (12:45)0,0 l/m²95%1022,74,8 km/h (1 Bft) W49,9 km/h (7 Bft) W-SW (07:10)
Aulendorf570 m05:35-0,9-1,4 (03:55)0,4 (01:13)0,0 l/m²94%1022,00,0 km/h (0 Bft) N-NW4,8 km/h (1 Bft) N-NW (00:19)
Bad Schussenried572 m05:35-1,4-1,7 (04:30)0,1 (00:30)0,0 l/m²95%1021,30,0 km/h (0 Bft) N-NW3,2 km/h (1 Bft) N-NW (01:50)
Bergatreute615 m05:35-0,6-0,6 (05:35)1,6 (00:00)0,0 l/m²97%1022,83,2 km/h (1 Bft) O8,0 km/h (2 Bft) S (03:10)
Biberach (Riss)533 m05:20-1,8-1,8 (05:20)1,3 (00:20)0,0 l/m²98%1022,27,6 km/h (2 Bft) SW12,2 km/h (3 Bft) W-SW (05:10)
Bodnegg-Rotheidlen677 m05:35-2,7-2,7 (05:35)0,4 (00:00)0,2 l/m²96%1023,00,0 km/h (0 Bft) S-SW3,2 km/h (1 Bft) S-SW (01:30)
Burgrieden523 m05:35-2,8-2,8 (05:35)-0,8 (00:00)0,0 l/m²89%1023,04,8 km/h (1 Bft) S-SO11,3 km/h (2 Bft) S-SO (05:15)
Burgrieden-Hochstetten510 m05:35-3,3-3,4 (05:00)-1,3 (14:50)0,0 l/m²95%1023,74,8 km/h (1 Bft) SO32,2 km/h (5 Bft) W-NW (10:00)
Ebersbach579 m05:35-2,2-2,5 (05:05)-0,2 (01:45)0,0 l/m²96%1023,60,0 km/h (0 Bft) N-NO0,0 km/h (0 Bft) N (00:00)
Ebersbach-Boos605 m05:35-3,2-3,3 (05:35)-0,6 (02:10)0,0 l/m²95%1023,40,0 km/h (0 Bft) NW0,0 km/h (0 Bft) N-NW (00:00)
Ebersbach-Menzenweiler661 m05:35-1,9-1,9 (05:35)0,1 (00:00)0,0 l/m²96%1023,20,0 km/h (0 Bft) O6,4 km/h (2 Bft) NW (02:00)
Erlenmoos645 m05:35-1,9-1,9 (05:30)0,5 (00:35)0,0 l/m²96%1022,80,0 km/h (0 Bft) SW9,7 km/h (2 Bft) S-SW (04:30)
Ertingen569 m05:35-2,9-2,9 (05:35)-0,8 (00:00)0,0 l/m²94%1022,81,6 km/h (1 Bft) S-SO6,4 km/h (2 Bft) S-SO (00:10)
Friedrichshafen405 m05:350,80,8 (05:25)2,3 (13:20)0,0 l/m²92%1023,34,8 km/h (1 Bft) N-NO25,7 km/h (4 Bft) NW (14:55)
Furkajoch (AT)1630 m05:25-6,8-7,2 (03:20)-5,7 (00:35)0,0 l/m²94%1020,912,9 km/h (3 Bft) O16,1 km/h (3 Bft) O (03:55)
Günzburg443 m05:00-2,4-2,7 (04:50)0,1 (00:00)0,0 l/m²92%1019,80,0 km/h (0 Bft) W-SW6,4 km/h (2 Bft) W-SW (00:10)
Höchsten802 m05:35-0,6-1,2 (00:00)0,4 (02:20)0,0 l/m²89%1020,83,2 km/h (1 Bft) O-NO8,0 km/h (2 Bft) N (00:00)
Horgenzell618 m01:30-0,3-0,8 (00:05)-0,1 (00:40)0,0 l/m²93%1021,00,0 km/h (0 Bft) NW0,0 km/h (0 Bft) NW (00:00)
Hoßkirch632 m05:35-3,8-4,5 (05:05)-1,0 (01:45)0,0 l/m²96%1022,60,0 km/h (0 Bft) SW8,0 km/h (2 Bft) SW (01:50)
Isny im Allgäu695 m05:35-2,6-2,6 (05:35)0,4 (01:20)0,0 l/m²96%1022,84,8 km/h (1 Bft) O-SO4,8 km/h (1 Bft) O-SO (05:35)
Kappel-Grafenhausen163 m05:30-1,0-1,0 (05:20)1,3 (13:50)0,0 l/m²93%1022,40,0 km/h (0 Bft) N22,5 km/h (4 Bft) N-NW (09:45)
Kirchberg an der Iller584 m05:35-1,2-1,5 (04:15)0,1 (09:30)0,0 l/m²85%1014,20,0 km/h (0 Bft) S-SW16,1 km/h (3 Bft) NO (12:25)
Kißlegg-Staibshof709 m05:35-0,7-0,7 (02:25)0,4 (00:00)0,0 l/m²98%1022,70,0 km/h (0 Bft) W-SW0,0 km/h (0 Bft) W (00:00)
Kreuzthal-Steinbergalm930 m05:30-3,3-3,4 (05:30)-0,8 (00:20)0,0 l/m²100%1024,00,7 km/h (0 Bft) O-SO3,6 km/h (1 Bft) SO (05:30)
Kreuzthal-Steinberggipfel1040 m05:30-3,1-3,3 (05:20)-1,1 (00:10)-100%1024,04,0 km/h (1 Bft) S-SO8,6 km/h (2 Bft) SW (05:10)
Kristberg im Montafon (AT)1425 m05:35-6,4-6,4 (05:35)-4,0 (00:00)0,0 l/m²92%1022,90,0 km/h (0 Bft) SW0,0 km/h (0 Bft) W (00:00)
Laupheim500 m05:35-2,4-2,4 (04:15)0,1 (00:00)0,0 l/m²93%1022,50,0 km/h (0 Bft) S-SW4,8 km/h (1 Bft) SW (00:00)
Leutkirch-Heggelbach670 m05:35-1,1-1,1 (05:35)0,7 (00:00)0,0 l/m²93%1022,20,0 km/h (0 Bft) W-SW0,0 km/h (0 Bft) N (00:00)
Lindau-Insel420 m05:352,42,2 (04:50)3,3 (14:25)0,0 l/m²93%1022,50,0 km/h (0 Bft) SO33,8 km/h (5 Bft) NW (15:15)
Lindau-Stadt412 m05:351,61,6 (05:35)2,6 (15:00)0,4 l/m²94%1022,70,0 km/h (0 Bft) S-SW33,8 km/h (5 Bft) SW (08:25)
Maierhöfen im Allgäu733 m05:35-4,8-4,8 (05:25)0,1 (00:00)0,0 l/m²95%1023,40,0 km/h (0 Bft) O-SO3,2 km/h (1 Bft) SO (02:20)
Mindelheim-Apfeltrach620 m05:36-2,8-2,8 (05:31)0,2 (13:13)0,0 l/m²94%1024,06,4 km/h (2 Bft) S-SO35,4 km/h (5 Bft) W (07:00)
Neresheim552 m05:00-4,1-4,1 (05:00)-1,1 (00:00)0,0 l/m²97%1021,44,0 km/h (1 Bft) N5,0 km/h (1 Bft) N (01:00)
Neukirch570 m05:35-1,4-1,4 (05:35)1,7 (14:05)0,0 l/m²95%1023,30,0 km/h (0 Bft) O-NO0,0 km/h (0 Bft) N (06:00)
Ochsenhausen613 m05:35-2,3-2,3 (05:20)0,3 (00:15)0,0 l/m²89%1023,04,8 km/h (1 Bft) S4,8 km/h (1 Bft) S (03:35)
Ostrach619 m05:30-3,6-3,6 (05:10)-0,4 (11:00)0,0 l/m²95%1020,43,2 km/h (1 Bft) N-NO32,2 km/h (5 Bft) W (07:55)
Ravensburg428 m05:35-0,3-0,3 (05:35)2,1 (00:45)0,0 l/m²95%1022,98,0 km/h (2 Bft) N-NO8,0 km/h (2 Bft) N-NO (01:45)
Reichenbach an der Fils343 m05:35-2,6-2,7 (05:30)0,8 (00:00)0,0 l/m²89%1025,30,0 km/h (0 Bft) NO0,0 km/h (0 Bft) N-NW (00:00)
Riedlingen530 m05:35-3,8-3,8 (05:30)-1,9 (00:00)0,0 l/m²94%1023,20,0 km/h (0 Bft) S-SW4,8 km/h (1 Bft) S-SW (01:15)
Rißtissen489 m05:35-2,4-2,4 (05:35)0,4 (00:00)0,0 l/m²92%1020,61,6 km/h (1 Bft) W-SW4,8 km/h (1 Bft) W-SW (01:35)
Schemmerhofen520 m05:35-2,3-2,3 (05:30)0,5 (00:00)0,0 l/m²95%1022,60,0 km/h (0 Bft) S4,8 km/h (1 Bft) S (01:50)
Silbertal im Montafon (AT)884 m05:35-1,7-1,7 (05:35)0,1 (00:20)0,8 l/m²93%1023,00,0 km/h (0 Bft) O1,6 km/h (1 Bft) W-NW (00:05)
Tuttlingen662 m05:35-4,3-4,4 (03:30)-2,3 (00:00)0,0 l/m²94%1023,73,1 km/h (1 Bft) N-NW3,1 km/h (1 Bft) N-NW (00:10)
Waldburg707 m05:35-2,3-2,3 (05:30)1,1 (00:30)0,0 l/m²97%1022,80,0 km/h (0 Bft) N3,2 km/h (1 Bft) N (00:50)
Waltenhofen im Allgäu720 m05:35-0,9-1,3 (01:30)0,0 (00:15)0,0 l/m²97%1022,60,0 km/h (0 Bft) W-NW1,6 km/h (1 Bft) W-NW (02:10)
Wangen im Allgäu569 m05:35-1,4-1,6 (05:05)1,9 (00:00)0,0 l/m²94%1021,70,0 km/h (0 Bft) NO3,2 km/h (1 Bft) NO (05:05)
Wangen-Epplings569 m05:35-2,1-2,1 (05:35)1,4 (00:00)0,0 l/m²93%1023,14,8 km/h (1 Bft) SO6,4 km/h (2 Bft) SO (05:10)
Weingarten500 m05:35-0,4-0,4 (05:35)2,1 (00:00)0,0 l/m²93%1022,80,0 km/h (0 Bft) N9,7 km/h (2 Bft) N-NW (01:25)

Werbung
niederschlagsdatenbank | info | login - erfassung

Sollten Sie Interesse haben, an der Niederschlagsdatenbank teilzunehmen, finden Sie > hier < weitere Informationen.

Niederschlagsdaten der Station Ehingen - Am Elzengraben

Winfried Moosmann

Niederschlagsstation aufgenommen ins Stationsnetz der Wetterwarte Süd am 29.04.2009
Monat: .
Anmerkung:0,0 = nicht messbarer Niederschlag
 -  = kein Niederschlag

Stationsdaten

Höhe

516 m

Lage

Auf Google Maps ansehen

Beschreibung

Eigentümer, Betreiber und Ableser des Regenmessbechers bin ich, also Winfried Moosmann. Da ich in das tägliche Kalenderblatt in der Schwäbischen Zeitung jeden Tag auch eine Bauern- oder Wetterregel reinschreiben muss, liegt es nahe, dass ich das Wetter etwas näher beobachte. Schließlich möchte ich wissen, wer von uns beiden die höhere Trefferquote aufweist. (Roro ist besser ... das liegt vermutlich daran, dass er seinen Wetterbericht täglich neu erfinden kann während ich nur jahrhundertealte Weisheiten zitieren darf!)

Für diejenigen, die sich wirklich für meine Messstation interessieren: Sie liegt am Nordostrand des Stadtgebiets von Ehingen, etwa 500 Meter südöstlich vom Albaufstieg.

Genaue Lage:
Am Elzengraben 22 in 89584 Ehingen (Donau)
48°17'14" N und 09°43'55" O,
Höhe: 515,70 m über NN.
(Siehe auch verlinkte Google-Map).


Noch etwas zu dem linken Foto: Sie sehen darauf eine Eigenkonstruktion, die es mir erlaubt, mich morgens um 08:30 Uhr MESZ bzw. 07:30 Uhr MEZ noch einmal genüsslich im Bett umzudrehen und trotzdem exakte Werte zu liefern. Ich weiß, das Ganze entbehrt jeglicher Eleganz und erinnert eher an robuste russische Raumfahrttechnik. Ich werde es wohl zum Patent anmelden.

Wenn ich mal gerade keine Niederschläge ablese und auch kein Kalenderblatt zu fabrizieren ist, kommt es vor, dass ich mich literarisch betätige. Wenn Sie darüber tatsächlich mehr wissen wollen, lade ich Sie zum kostenlosen Besuch meiner Website http://www.winfried-moosmann.de ein. Ihr auch nur eine gewisse Aktualität zu unterstellen, wäre regelrecht vermessen. So bald ich mal Zeit habe ...
< Februar 2012April 2012 >

März 2012

TagNiederschlagBemerkung
01.0,0
Bodennebel
02.-
Bodennebel
03.-
04.5,0
05.-
06.-
07.1,0
Regen
08.0,5
ein paar verstreute festgefrorene Schneegraupel
09.-
10.-
11.0,0
12.-
13.-
14.-
Bodennebel
15.-
leichter Morgenfrost
16.-
17.-
18.10,5
Regen
19.1,5
20.-
21.-
22.-
23.-
24.3,5
25.-
26.-
27.-
28.-
29.-
30.-
31.-
Gesamt:22,0 
Die Spalten "Tag" und "Niederschlag" lassen sich durch Klicken auf den Spaltenkopf sortieren.
Die Angaben sind in l/m².

< Februar 2012April 2012 >


Monats- und Jahresniederschlag


Wetterbeobachtungen Legende:

  • Regen
  • Nieselregen
  • Schneeregen
  • Schnee
  • Graupel
  • Eiskörner
  • Hagel
  • Bodennebel
  • Gewitter
  • Nebelnässe
  • Schneegriesel

Grafische Darstellung der Niederschläge der Station Ehingen März 2012

 
wetterstationen
wetterstationen
- derzeit 59 Stationen
niederschlagsdatenbank
wetterstationen
- kartographische Darstellung
niederschlagsdatenbank
niederschlagsstationen
- derzeit 103 Stationen
niederschlagsdatenbank
niederschlagsstationen
- kartographische Darstellung
 
 
Fr. 7.30 Uhr - Sa. 7.30 Uhr (MEZ)
1.Tuttlingen-Möhringen
Eßlinger Straße
2,8 l/m²
2.Biberach
Amriswilstrasse
2,0 l/m²
3.Stuttgart-Möhringen0,5 l/m²
 
  treffpunkt & service
--- Anzeigen --------------------------------
neuburger it :: computer netzwerk administration
zugriffe:
insgesamt: 31.301.253
aktueller monat: 229.276
heute: 323
momentan online: 5
 
 
monatshöchstwert: 525.050
vorheriger monat: 413.704
gestern: 9.940
tageshöchstwert: 41.209
 
wetterwarte süd
 
konradstraße 3
info@wetterwarte-sued.com
roland roth
 
88427 bad schussenried